sensor_id;sensor_type;location;lat;lon;timestamp;P1;durP1;ratioP1;P2;durP2;ratioP2
36351;SDS011;22382;44.768;17.206;2022-12-24T00:01:02;177.88;;;103.45;;
36351;SDS011;22382;44.768;17.206;2022-12-24T00:03:30;173.13;;;104.90;;
36351;SDS011;22382;44.768;17.206;2022-12-24T00:05:58;175.88;;;103.50;;
36351;SDS011;22382;44.768;17.206;2022-12-24T00:08:29;188.32;;;106.57;;
36351;SDS011;22382;44.768;17.206;2022-12-24T00:10:56;181.93;;;105.68;;
36351;SDS011;22382;44.768;17.206;2022-12-24T00:13:23;174.80;;;103.22;;
36351;SDS011;22382;44.768;17.206;2022-12-24T00:15:50;174.27;;;102.88;;
36351;SDS011;22382;44.768;17.206;2022-12-24T00:18:17;178.85;;;101.72;;
36351;SDS011;22382;44.768;17.206;2022-12-24T00:20:47;171.27;;;102.50;;
36351;SDS011;22382;44.768;17.206;2022-12-24T00:23:15;183.75;;;106.20;;
36351;SDS011;22382;44.768;17.206;2022-12-24T00:25:44;188.32;;;107.05;;
36351;SDS011;22382;44.768;17.206;2022-12-24T00:28:12;174.82;;;100.25;;
36351;SDS011;22382;44.768;17.206;2022-12-24T00:30:40;178.95;;;106.53;;
36351;SDS011;22382;44.768;17.206;2022-12-24T00:33:08;176.80;;;103.22;;
36351;SDS011;22382;44.768;17.206;2022-12-24T00:35:36;178.25;;;100.47;;
36351;SDS011;22382;44.768;17.206;2022-12-24T00:38:04;174.68;;;101.90;;
36351;SDS011;22382;44.768;17.206;2022-12-24T00:40:32;172.32;;;100.53;;
36351;SDS011;22382;44.768;17.206;2022-12-24T00:42:59;169.00;;;100.95;;
36351;SDS011;22382;44.768;17.206;2022-12-24T00:45:26;175.70;;;103.35;;
36351;SDS011;22382;44.768;17.206;2022-12-24T00:47:53;175.80;;;102.80;;
36351;SDS011;22382;44.768;17.206;2022-12-24T00:50:20;169.35;;;101.15;;
36351;SDS011;22382;44.768;17.206;2022-12-24T00:52:47;195.68;;;111.18;;
36351;SDS011;22382;44.768;17.206;2022-12-24T00:55:15;188.98;;;107.13;;
36351;SDS011;22382;44.768;17.206;2022-12-24T00:57:42;172.77;;;104.07;;
36351;SDS011;22382;44.768;17.206;2022-12-24T01:00:09;183.02;;;105.15;;
36351;SDS011;22382;44.768;17.206;2022-12-24T01:02:36;184.73;;;109.80;;
36351;SDS011;22382;44.768;17.206;2022-12-24T01:05:04;180.30;;;106.05;;
36351;SDS011;22382;44.768;17.206;2022-12-24T01:07:38;192.32;;;111.80;;
36351;SDS011;22382;44.768;17.206;2022-12-24T01:10:07;197.10;;;112.63;;
36351;SDS011;22382;44.768;17.206;2022-12-24T01:12:35;200.32;;;110.70;;
36351;SDS011;22382;44.768;17.206;2022-12-24T01:15:03;199.32;;;114.63;;
36351;SDS011;22382;44.768;17.206;2022-12-24T01:17:31;181.95;;;109.10;;
36351;SDS011;22382;44.768;17.206;2022-12-24T01:20:00;192.95;;;111.85;;
36351;SDS011;22382;44.768;17.206;2022-12-24T01:22:27;189.80;;;105.70;;
36351;SDS011;22382;44.768;17.206;2022-12-24T01:24:54;173.50;;;101.35;;
36351;SDS011;22382;44.768;17.206;2022-12-24T01:27:21;164.77;;;96.93;;
36351;SDS011;22382;44.768;17.206;2022-12-24T01:29:48;160.93;;;93.78;;
36351;SDS011;22382;44.768;17.206;2022-12-24T01:32:15;161.32;;;96.20;;
36351;SDS011;22382;44.768;17.206;2022-12-24T01:34:42;170.90;;;101.25;;
36351;SDS011;22382;44.768;17.206;2022-12-24T01:37:09;169.90;;;99.38;;
36351;SDS011;22382;44.768;17.206;2022-12-24T01:39:36;163.00;;;95.15;;
36351;SDS011;22382;44.768;17.206;2022-12-24T01:42:37;170.23;;;95.05;;
36351;SDS011;22382;44.768;17.206;2022-12-24T01:48:04;168.98;;;97.60;;
36351;SDS011;22382;44.768;17.206;2022-12-24T01:53:57;167.82;;;100.47;;
36351;SDS011;22382;44.768;17.206;2022-12-24T01:56:29;179.85;;;104.40;;
36351;SDS011;22382;44.768;17.206;2022-12-24T01:58:59;170.80;;;101.88;;
36351;SDS011;22382;44.768;17.206;2022-12-24T02:01:33;177.80;;;100.22;;
36351;SDS011;22382;44.768;17.206;2022-12-24T02:04:02;165.00;;;96.45;;
36351;SDS011;22382;44.768;17.206;2022-12-24T02:06:37;156.20;;;91.75;;
36351;SDS011;22382;44.768;17.206;2022-12-24T02:09:04;152.65;;;92.15;;
36351;SDS011;22382;44.768;17.206;2022-12-24T02:11:39;154.07;;;92.03;;
36351;SDS011;22382;44.768;17.206;2022-12-24T02:14:09;172.80;;;102.55;;
36351;SDS011;22382;44.768;17.206;2022-12-24T02:22:13;158.02;;;92.53;;
36351;SDS011;22382;44.768;17.206;2022-12-24T02:30:50;151.02;;;86.60;;
36351;SDS011;22382;44.768;17.206;2022-12-24T02:33:29;145.13;;;84.97;;
36351;SDS011;22382;44.768;17.206;2022-12-24T02:38:50;155.35;;;91.80;;
36351;SDS011;22382;44.768;17.206;2022-12-24T02:41:26;156.82;;;88.90;;
36351;SDS011;22382;44.768;17.206;2022-12-24T02:44:19;149.73;;;89.15;;
36351;SDS011;22382;44.768;17.206;2022-12-24T02:46:50;148.52;;;86.35;;
36351;SDS011;22382;44.768;17.206;2022-12-24T02:49:18;149.57;;;87.85;;
36351;SDS011;22382;44.768;17.206;2022-12-24T02:51:45;143.95;;;88.63;;
36351;SDS011;22382;44.768;17.206;2022-12-24T02:54:12;138.75;;;86.50;;
36351;SDS011;22382;44.768;17.206;2022-12-24T03:12:31;143.07;;;83.70;;
36351;SDS011;22382;44.768;17.206;2022-12-24T03:15:03;141.95;;;82.68;;
36351;SDS011;22382;44.768;17.206;2022-12-24T03:17:33;138.32;;;80.43;;
36351;SDS011;22382;44.768;17.206;2022-12-24T03:20:04;137.00;;;81.50;;
36351;SDS011;22382;44.768;17.206;2022-12-24T03:22:33;140.32;;;84.18;;
36351;SDS011;22382;44.768;17.206;2022-12-24T03:25:01;138.32;;;81.65;;
36351;SDS011;22382;44.768;17.206;2022-12-24T03:27:29;135.30;;;80.28;;
36351;SDS011;22382;44.768;17.206;2022-12-24T03:29:58;132.82;;;78.60;;
36351;SDS011;22382;44.768;17.206;2022-12-24T03:32:29;137.90;;;83.35;;
36351;SDS011;22382;44.768;17.206;2022-12-24T03:34:57;135.70;;;80.72;;
36351;SDS011;22382;44.768;17.206;2022-12-24T03:37:24;151.23;;;86.70;;
36351;SDS011;22382;44.768;17.206;2022-12-24T03:39:52;137.73;;;82.57;;
36351;SDS011;22382;44.768;17.206;2022-12-24T03:42:19;135.52;;;79.75;;
36351;SDS011;22382;44.768;17.206;2022-12-24T03:44:46;129.23;;;78.95;;
36351;SDS011;22382;44.768;17.206;2022-12-24T03:47:13;135.85;;;79.47;;
36351;SDS011;22382;44.768;17.206;2022-12-24T03:49:40;142.68;;;85.75;;
36351;SDS011;22382;44.768;17.206;2022-12-24T03:52:07;142.77;;;84.43;;
36351;SDS011;22382;44.768;17.206;2022-12-24T03:54:34;141.73;;;79.93;;
36351;SDS011;22382;44.768;17.206;2022-12-24T03:57:01;142.00;;;83.78;;
36351;SDS011;22382;44.768;17.206;2022-12-24T03:59:29;137.55;;;86.20;;
36351;SDS011;22382;44.768;17.206;2022-12-24T04:01:56;143.27;;;84.97;;
36351;SDS011;22382;44.768;17.206;2022-12-24T04:04:23;138.40;;;77.68;;
36351;SDS011;22382;44.768;17.206;2022-12-24T04:06:50;133.57;;;78.32;;
36351;SDS011;22382;44.768;17.206;2022-12-24T04:09:18;124.03;;;73.38;;
36351;SDS011;22382;44.768;17.206;2022-12-24T04:11:45;128.23;;;75.88;;
36351;SDS011;22382;44.768;17.206;2022-12-24T04:14:12;117.78;;;68.30;;
36351;SDS011;22382;44.768;17.206;2022-12-24T04:16:39;119.75;;;70.03;;
36351;SDS011;22382;44.768;17.206;2022-12-24T04:19:06;115.18;;;68.32;;
36351;SDS011;22382;44.768;17.206;2022-12-24T04:21:33;93.82;;;55.60;;
36351;SDS011;22382;44.768;17.206;2022-12-24T04:24:00;97.80;;;58.95;;
36351;SDS011;22382;44.768;17.206;2022-12-24T04:26:27;109.68;;;63.05;;
36351;SDS011;22382;44.768;17.206;2022-12-24T04:28:54;68.65;;;41.22;;
36351;SDS011;22382;44.768;17.206;2022-12-24T04:31:21;64.43;;;40.85;;
36351;SDS011;22382;44.768;17.206;2022-12-24T04:33:49;82.50;;;49.38;;
36351;SDS011;22382;44.768;17.206;2022-12-24T04:36:18;80.55;;;47.22;;
36351;SDS011;22382;44.768;17.206;2022-12-24T04:38:46;94.70;;;54.33;;
36351;SDS011;22382;44.768;17.206;2022-12-24T04:41:20;72.18;;;41.45;;
36351;SDS011;22382;44.768;17.206;2022-12-24T04:43:53;71.05;;;41.22;;
36351;SDS011;22382;44.768;17.206;2022-12-24T04:46:22;73.15;;;43.97;;
36351;SDS011;22382;44.768;17.206;2022-12-24T04:48:51;94.47;;;55.97;;
36351;SDS011;22382;44.768;17.206;2022-12-24T04:51:19;89.97;;;51.63;;
36351;SDS011;22382;44.768;17.206;2022-12-24T04:53:47;78.43;;;45.30;;
36351;SDS011;22382;44.768;17.206;2022-12-24T04:56:16;85.63;;;52.85;;
36351;SDS011;22382;44.768;17.206;2022-12-24T05:01:19;83.63;;;50.15;;
36351;SDS011;22382;44.768;17.206;2022-12-24T05:03:48;92.60;;;53.55;;
36351;SDS011;22382;44.768;17.206;2022-12-24T05:06:20;68.63;;;38.83;;
36351;SDS011;22382;44.768;17.206;2022-12-24T05:08:54;96.68;;;57.03;;
36351;SDS011;22382;44.768;17.206;2022-12-24T05:11:22;94.40;;;53.53;;
36351;SDS011;22382;44.768;17.206;2022-12-24T05:13:49;82.60;;;49.13;;
36351;SDS011;22382;44.768;17.206;2022-12-24T05:16:17;79.97;;;47.05;;
36351;SDS011;22382;44.768;17.206;2022-12-24T05:18:46;81.97;;;48.70;;
36351;SDS011;22382;44.768;17.206;2022-12-24T05:21:14;90.72;;;53.85;;
36351;SDS011;22382;44.768;17.206;2022-12-24T05:23:44;89.55;;;53.50;;
36351;SDS011;22382;44.768;17.206;2022-12-24T05:29:08;103.25;;;58.85;;
36351;SDS011;22382;44.768;17.206;2022-12-24T05:31:37;101.53;;;59.30;;
36351;SDS011;22382;44.768;17.206;2022-12-24T05:34:06;99.90;;;56.15;;
36351;SDS011;22382;44.768;17.206;2022-12-24T05:36:33;94.25;;;56.10;;
36351;SDS011;22382;44.768;17.206;2022-12-24T05:39:00;85.50;;;51.80;;
36351;SDS011;22382;44.768;17.206;2022-12-24T05:41:28;85.35;;;51.35;;
36351;SDS011;22382;44.768;17.206;2022-12-24T05:43:55;85.38;;;50.67;;
36351;SDS011;22382;44.768;17.206;2022-12-24T05:46:23;85.60;;;52.35;;
36351;SDS011;22382;44.768;17.206;2022-12-24T05:48:51;91.07;;;53.90;;
36351;SDS011;22382;44.768;17.206;2022-12-24T05:51:19;84.13;;;51.72;;
36351;SDS011;22382;44.768;17.206;2022-12-24T05:53:48;82.15;;;50.20;;
36351;SDS011;22382;44.768;17.206;2022-12-24T05:56:18;78.60;;;47.47;;
36351;SDS011;22382;44.768;17.206;2022-12-24T05:58:49;90.70;;;56.88;;
36351;SDS011;22382;44.768;17.206;2022-12-24T06:01:17;84.78;;;52.88;;
36351;SDS011;22382;44.768;17.206;2022-12-24T06:03:45;89.65;;;52.53;;
36351;SDS011;22382;44.768;17.206;2022-12-24T06:06:16;70.68;;;42.90;;
36351;SDS011;22382;44.768;17.206;2022-12-24T06:08:46;62.50;;;37.30;;
36351;SDS011;22382;44.768;17.206;2022-12-24T06:11:15;75.93;;;46.72;;
36351;SDS011;22382;44.768;17.206;2022-12-24T06:13:43;92.97;;;54.03;;
36351;SDS011;22382;44.768;17.206;2022-12-24T06:16:12;99.93;;;55.15;;
36351;SDS011;22382;44.768;17.206;2022-12-24T06:18:40;71.75;;;40.25;;
36351;SDS011;22382;44.768;17.206;2022-12-24T06:21:08;60.97;;;33.85;;
36351;SDS011;22382;44.768;17.206;2022-12-24T06:23:36;64.15;;;35.17;;
36351;SDS011;22382;44.768;17.206;2022-12-24T06:26:05;64.95;;;36.13;;
36351;SDS011;22382;44.768;17.206;2022-12-24T06:28:34;69.47;;;38.58;;
36351;SDS011;22382;44.768;17.206;2022-12-24T06:31:03;65.03;;;39.45;;
36351;SDS011;22382;44.768;17.206;2022-12-24T06:33:32;86.45;;;47.33;;
36351;SDS011;22382;44.768;17.206;2022-12-24T06:36:00;79.45;;;49.13;;
36351;SDS011;22382;44.768;17.206;2022-12-24T06:38:30;99.03;;;58.70;;
36351;SDS011;22382;44.768;17.206;2022-12-24T06:40:57;106.25;;;64.55;;
36351;SDS011;22382;44.768;17.206;2022-12-24T06:43:25;104.53;;;61.25;;
36351;SDS011;22382;44.768;17.206;2022-12-24T06:45:52;104.00;;;62.53;;
36351;SDS011;22382;44.768;17.206;2022-12-24T06:48:19;104.93;;;62.85;;
36351;SDS011;22382;44.768;17.206;2022-12-24T06:50:46;115.32;;;66.95;;
36351;SDS011;22382;44.768;17.206;2022-12-24T06:53:13;101.85;;;63.22;;
36351;SDS011;22382;44.768;17.206;2022-12-24T06:55:40;99.90;;;60.83;;
36351;SDS011;22382;44.768;17.206;2022-12-24T06:58:07;101.20;;;62.08;;
36351;SDS011;22382;44.768;17.206;2022-12-24T07:00:34;110.40;;;68.03;;
36351;SDS011;22382;44.768;17.206;2022-12-24T07:03:01;113.82;;;66.93;;
36351;SDS011;22382;44.768;17.206;2022-12-24T07:05:29;101.47;;;65.03;;
36351;SDS011;22382;44.768;17.206;2022-12-24T07:07:56;100.93;;;61.03;;
36351;SDS011;22382;44.768;17.206;2022-12-24T07:10:23;101.53;;;61.55;;
36351;SDS011;22382;44.768;17.206;2022-12-24T07:12:50;107.68;;;65.13;;
36351;SDS011;22382;44.768;17.206;2022-12-24T07:15:17;115.65;;;70.55;;
36351;SDS011;22382;44.768;17.206;2022-12-24T07:17:45;142.23;;;80.60;;
36351;SDS011;22382;44.768;17.206;2022-12-24T07:20:12;142.18;;;85.35;;
36351;SDS011;22382;44.768;17.206;2022-12-24T07:22:40;105.60;;;65.50;;
36351;SDS011;22382;44.768;17.206;2022-12-24T07:25:08;92.68;;;55.95;;
36351;SDS011;22382;44.768;17.206;2022-12-24T07:27:36;106.40;;;59.45;;
36351;SDS011;22382;44.768;17.206;2022-12-24T07:30:04;99.82;;;56.90;;
36351;SDS011;22382;44.768;17.206;2022-12-24T07:32:33;105.38;;;59.63;;
36351;SDS011;22382;44.768;17.206;2022-12-24T07:35:00;113.03;;;59.58;;
36351;SDS011;22382;44.768;17.206;2022-12-24T07:37:28;130.65;;;73.22;;
36351;SDS011;22382;44.768;17.206;2022-12-24T07:39:55;99.88;;;59.75;;
36351;SDS011;22382;44.768;17.206;2022-12-24T07:42:22;98.97;;;58.45;;
36351;SDS011;22382;44.768;17.206;2022-12-24T07:44:49;101.50;;;57.28;;
36351;SDS011;22382;44.768;17.206;2022-12-24T07:47:16;95.40;;;54.78;;
36351;SDS011;22382;44.768;17.206;2022-12-24T07:49:44;95.53;;;55.92;;
36351;SDS011;22382;44.768;17.206;2022-12-24T07:52:11;96.85;;;57.20;;
36351;SDS011;22382;44.768;17.206;2022-12-24T07:54:38;102.32;;;57.22;;
36351;SDS011;22382;44.768;17.206;2022-12-24T07:57:05;88.88;;;52.38;;
36351;SDS011;22382;44.768;17.206;2022-12-24T07:59:32;91.72;;;57.42;;
36351;SDS011;22382;44.768;17.206;2022-12-24T08:01:59;95.80;;;57.55;;
36351;SDS011;22382;44.768;17.206;2022-12-24T08:04:26;106.20;;;59.75;;
36351;SDS011;22382;44.768;17.206;2022-12-24T08:06:53;111.25;;;60.53;;
36351;SDS011;22382;44.768;17.206;2022-12-24T08:09:20;113.72;;;64.72;;
36351;SDS011;22382;44.768;17.206;2022-12-24T08:11:47;103.80;;;61.53;;
36351;SDS011;22382;44.768;17.206;2022-12-24T08:14:17;99.55;;;62.30;;
36351;SDS011;22382;44.768;17.206;2022-12-24T08:16:45;101.53;;;60.95;;
36351;SDS011;22382;44.768;17.206;2022-12-24T08:19:12;98.18;;;59.15;;
36351;SDS011;22382;44.768;17.206;2022-12-24T08:21:39;93.55;;;57.03;;
36351;SDS011;22382;44.768;17.206;2022-12-24T08:24:06;99.45;;;62.00;;
36351;SDS011;22382;44.768;17.206;2022-12-24T08:26:33;98.78;;;60.03;;
36351;SDS011;22382;44.768;17.206;2022-12-24T08:29:01;105.15;;;61.30;;
36351;SDS011;22382;44.768;17.206;2022-12-24T08:31:29;101.80;;;62.42;;
36351;SDS011;22382;44.768;17.206;2022-12-24T08:34:02;119.03;;;68.55;;
36351;SDS011;22382;44.768;17.206;2022-12-24T08:36:31;121.35;;;73.03;;
36351;SDS011;22382;44.768;17.206;2022-12-24T08:38:58;120.20;;;68.00;;
36351;SDS011;22382;44.768;17.206;2022-12-24T08:41:29;124.68;;;68.63;;
36351;SDS011;22382;44.768;17.206;2022-12-24T08:43:58;122.57;;;67.95;;
36351;SDS011;22382;44.768;17.206;2022-12-24T08:46:26;114.95;;;64.25;;
36351;SDS011;22382;44.768;17.206;2022-12-24T08:48:53;110.50;;;65.22;;
36351;SDS011;22382;44.768;17.206;2022-12-24T08:51:20;120.85;;;66.45;;
36351;SDS011;22382;44.768;17.206;2022-12-24T08:53:48;119.05;;;67.90;;
36351;SDS011;22382;44.768;17.206;2022-12-24T08:56:15;120.82;;;67.55;;
36351;SDS011;22382;44.768;17.206;2022-12-24T08:58:43;121.15;;;67.68;;
36351;SDS011;22382;44.768;17.206;2022-12-24T09:01:11;138.18;;;72.68;;
36351;SDS011;22382;44.768;17.206;2022-12-24T09:03:40;121.35;;;68.10;;
36351;SDS011;22382;44.768;17.206;2022-12-24T09:06:08;127.95;;;71.43;;
36351;SDS011;22382;44.768;17.206;2022-12-24T09:08:35;135.18;;;76.93;;
36351;SDS011;22382;44.768;17.206;2022-12-24T09:11:04;143.55;;;80.85;;
36351;SDS011;22382;44.768;17.206;2022-12-24T09:13:41;136.93;;;81.93;;
36351;SDS011;22382;44.768;17.206;2022-12-24T09:16:10;172.57;;;99.47;;
36351;SDS011;22382;44.768;17.206;2022-12-24T09:18:37;145.38;;;78.47;;
36351;SDS011;22382;44.768;17.206;2022-12-24T09:21:06;151.38;;;85.80;;
36351;SDS011;22382;44.768;17.206;2022-12-24T09:23:37;148.85;;;88.50;;
36351;SDS011;22382;44.768;17.206;2022-12-24T09:26:12;155.55;;;91.07;;
36351;SDS011;22382;44.768;17.206;2022-12-24T09:28:40;153.02;;;90.78;;
36351;SDS011;22382;44.768;17.206;2022-12-24T09:31:08;142.10;;;83.70;;
36351;SDS011;22382;44.768;17.206;2022-12-24T09:33:38;156.25;;;91.30;;
36351;SDS011;22382;44.768;17.206;2022-12-24T09:36:07;167.18;;;99.30;;
36351;SDS011;22382;44.768;17.206;2022-12-24T09:38:35;173.02;;;102.22;;
36351;SDS011;22382;44.768;17.206;2022-12-24T09:41:14;146.40;;;90.63;;
36351;SDS011;22382;44.768;17.206;2022-12-24T09:44:16;148.98;;;91.03;;
36351;SDS011;22382;44.768;17.206;2022-12-24T09:46:43;132.88;;;80.13;;
36351;SDS011;22382;44.768;17.206;2022-12-24T09:49:13;148.32;;;90.80;;
36351;SDS011;22382;44.768;17.206;2022-12-24T09:56:54;137.88;;;88.00;;
36351;SDS011;22382;44.768;17.206;2022-12-24T09:59:24;147.77;;;89.30;;
36351;SDS011;22382;44.768;17.206;2022-12-24T10:01:59;154.98;;;92.25;;
36351;SDS011;22382;44.768;17.206;2022-12-24T10:04:27;132.93;;;79.07;;
36351;SDS011;22382;44.768;17.206;2022-12-24T10:15:47;106.90;;;65.15;;
36351;SDS011;22382;44.768;17.206;2022-12-24T10:20:56;125.72;;;75.00;;
36351;SDS011;22382;44.768;17.206;2022-12-24T10:23:47;113.40;;;73.10;;
36351;SDS011;22382;44.768;17.206;2022-12-24T10:26:44;126.32;;;80.00;;
36351;SDS011;22382;44.768;17.206;2022-12-24T10:29:17;125.22;;;75.85;;
36351;SDS011;22382;44.768;17.206;2022-12-24T10:31:55;114.85;;;68.57;;
36351;SDS011;22382;44.768;17.206;2022-12-24T10:34:39;99.90;;;62.67;;
36351;SDS011;22382;44.768;17.206;2022-12-24T10:37:16;105.82;;;65.47;;
36351;SDS011;22382;44.768;17.206;2022-12-24T10:39:48;100.43;;;61.47;;
36351;SDS011;22382;44.768;17.206;2022-12-24T10:42:16;109.68;;;65.55;;
36351;SDS011;22382;44.768;17.206;2022-12-24T10:44:44;109.20;;;62.45;;
36351;SDS011;22382;44.768;17.206;2022-12-24T10:47:17;106.97;;;65.55;;
36351;SDS011;22382;44.768;17.206;2022-12-24T10:49:48;103.93;;;67.03;;
36351;SDS011;22382;44.768;17.206;2022-12-24T10:52:28;96.93;;;59.42;;
36351;SDS011;22382;44.768;17.206;2022-12-24T10:55:05;107.63;;;63.03;;
36351;SDS011;22382;44.768;17.206;2022-12-24T10:57:46;104.13;;;64.35;;
36351;SDS011;22382;44.768;17.206;2022-12-24T11:00:25;100.00;;;61.80;;
36351;SDS011;22382;44.768;17.206;2022-12-24T11:03:06;109.22;;;68.07;;
36351;SDS011;22382;44.768;17.206;2022-12-24T11:06:01;98.65;;;60.47;;
36351;SDS011;22382;44.768;17.206;2022-12-24T11:08:31;94.80;;;57.20;;
36351;SDS011;22382;44.768;17.206;2022-12-24T11:11:00;92.20;;;56.65;;
36351;SDS011;22382;44.768;17.206;2022-12-24T11:13:37;100.80;;;61.60;;
36351;SDS011;22382;44.768;17.206;2022-12-24T11:18:48;109.45;;;66.88;;
36351;SDS011;22382;44.768;17.206;2022-12-24T11:21:28;109.38;;;69.05;;
36351;SDS011;22382;44.768;17.206;2022-12-24T11:24:14;115.60;;;71.57;;
36351;SDS011;22382;44.768;17.206;2022-12-24T11:26:51;105.03;;;65.47;;
36351;SDS011;22382;44.768;17.206;2022-12-24T11:31:47;105.00;;;66.50;;
36351;SDS011;22382;44.768;17.206;2022-12-24T11:36:50;104.90;;;64.72;;
36351;SDS011;22382;44.768;17.206;2022-12-24T11:39:20;107.25;;;64.72;;
36351;SDS011;22382;44.768;17.206;2022-12-24T11:41:50;121.75;;;75.43;;
36351;SDS011;22382;44.768;17.206;2022-12-24T11:44:23;111.43;;;67.25;;
36351;SDS011;22382;44.768;17.206;2022-12-24T11:46:53;123.13;;;79.32;;
36351;SDS011;22382;44.768;17.206;2022-12-24T11:49:26;122.60;;;76.30;;
36351;SDS011;22382;44.768;17.206;2022-12-24T11:58:04;145.55;;;93.32;;
36351;SDS011;22382;44.768;17.206;2022-12-24T12:00:38;150.90;;;94.95;;
36351;SDS011;22382;44.768;17.206;2022-12-24T12:03:12;180.55;;;114.80;;
36351;SDS011;22382;44.768;17.206;2022-12-24T12:05:46;190.25;;;113.13;;
36351;SDS011;22382;44.768;17.206;2022-12-24T12:08:14;185.27;;;120.45;;
36351;SDS011;22382;44.768;17.206;2022-12-24T12:10:44;174.23;;;108.45;;
36351;SDS011;22382;44.768;17.206;2022-12-24T12:13:18;183.20;;;116.32;;
36351;SDS011;22382;44.768;17.206;2022-12-24T12:18:31;185.32;;;119.07;;
36351;SDS011;22382;44.768;17.206;2022-12-24T12:21:13;187.73;;;119.82;;
36351;SDS011;22382;44.768;17.206;2022-12-24T12:23:45;185.80;;;120.45;;
36351;SDS011;22382;44.768;17.206;2022-12-24T12:26:27;187.80;;;121.65;;
36351;SDS011;22382;44.768;17.206;2022-12-24T12:32:06;185.93;;;118.22;;
36351;SDS011;22382;44.768;17.206;2022-12-24T12:34:44;176.25;;;113.53;;
36351;SDS011;22382;44.768;17.206;2022-12-24T12:37:26;172.00;;;111.13;;
36351;SDS011;22382;44.768;17.206;2022-12-24T12:39:59;173.85;;;111.63;;
36351;SDS011;22382;44.768;17.206;2022-12-24T12:45:32;213.63;;;135.35;;
36351;SDS011;22382;44.768;17.206;2022-12-24T12:50:43;220.88;;;142.27;;
36351;SDS011;22382;44.768;17.206;2022-12-24T12:59:08;188.90;;;123.25;;
36351;SDS011;22382;44.768;17.206;2022-12-24T13:20:53;181.95;;;117.30;;
36351;SDS011;22382;44.768;17.206;2022-12-24T13:23:23;176.15;;;115.70;;
36351;SDS011;22382;44.768;17.206;2022-12-24T13:25:56;173.40;;;112.53;;
36351;SDS011;22382;44.768;17.206;2022-12-24T13:30:51;164.00;;;109.13;;
36351;SDS011;22382;44.768;17.206;2022-12-24T13:36:07;170.65;;;114.88;;
36351;SDS011;22382;44.768;17.206;2022-12-24T13:46:48;215.60;;;140.18;;
36351;SDS011;22382;44.768;17.206;2022-12-24T13:52:13;208.00;;;138.70;;
36351;SDS011;22382;44.768;17.206;2022-12-24T13:54:59;206.45;;;139.05;;
36351;SDS011;22382;44.768;17.206;2022-12-24T13:57:30;212.25;;;140.55;;
36351;SDS011;22382;44.768;17.206;2022-12-24T14:08:09;253.32;;;165.93;;
36351;SDS011;22382;44.768;17.206;2022-12-24T14:10:41;216.07;;;142.52;;
36351;SDS011;22382;44.768;17.206;2022-12-24T14:16:27;146.02;;;98.07;;
36351;SDS011;22382;44.768;17.206;2022-12-24T14:24:42;46.78;;;33.08;;
36351;SDS011;22382;44.768;17.206;2022-12-24T14:27:27;38.05;;;26.35;;
36351;SDS011;22382;44.768;17.206;2022-12-24T14:30:16;39.38;;;24.02;;
36351;SDS011;22382;44.768;17.206;2022-12-24T14:32:49;36.90;;;23.15;;
36351;SDS011;22382;44.768;17.206;2022-12-24T14:37:48;42.15;;;27.83;;
36351;SDS011;22382;44.768;17.206;2022-12-24T14:40:25;108.32;;;73.20;;
36351;SDS011;22382;44.768;17.206;2022-12-24T14:48:47;139.23;;;89.28;;
36351;SDS011;22382;44.768;17.206;2022-12-24T14:51:32;129.40;;;89.40;;
36351;SDS011;22382;44.768;17.206;2022-12-24T14:57:10;89.05;;;56.83;;
36351;SDS011;22382;44.768;17.206;2022-12-24T14:59:47;84.28;;;55.30;;
36351;SDS011;22382;44.768;17.206;2022-12-24T15:02:20;65.32;;;42.40;;
36351;SDS011;22382;44.768;17.206;2022-12-24T15:11:00;49.67;;;33.42;;
36351;SDS011;22382;44.768;17.206;2022-12-24T15:15:45;48.78;;;33.00;;
36351;SDS011;22382;44.768;17.206;2022-12-24T15:18:19;46.90;;;32.90;;
36351;SDS011;22382;44.768;17.206;2022-12-24T15:20:50;55.83;;;35.25;;
36351;SDS011;22382;44.768;17.206;2022-12-24T15:23:34;61.08;;;42.53;;
36351;SDS011;22382;44.768;17.206;2022-12-24T15:26:36;65.78;;;44.33;;
36351;SDS011;22382;44.768;17.206;2022-12-24T15:28:58;76.78;;;48.92;;
36351;SDS011;22382;44.768;17.206;2022-12-24T15:31:29;61.90;;;42.55;;
36351;SDS011;22382;44.768;17.206;2022-12-24T15:33:57;60.65;;;40.60;;
36351;SDS011;22382;44.768;17.206;2022-12-24T15:36:28;55.67;;;37.80;;
36351;SDS011;22382;44.768;17.206;2022-12-24T15:38:59;59.88;;;40.95;;
36351;SDS011;22382;44.768;17.206;2022-12-24T15:41:40;49.25;;;34.15;;
36351;SDS011;22382;44.768;17.206;2022-12-24T15:47:02;44.63;;;31.38;;
36351;SDS011;22382;44.768;17.206;2022-12-24T15:49:32;45.08;;;31.48;;
36351;SDS011;22382;44.768;17.206;2022-12-24T15:52:07;46.10;;;30.50;;
36351;SDS011;22382;44.768;17.206;2022-12-24T15:54:36;46.75;;;32.47;;
36351;SDS011;22382;44.768;17.206;2022-12-24T15:59:59;44.65;;;32.55;;
36351;SDS011;22382;44.768;17.206;2022-12-24T16:02:39;54.58;;;36.80;;
36351;SDS011;22382;44.768;17.206;2022-12-24T16:10:44;114.47;;;76.18;;
36351;SDS011;22382;44.768;17.206;2022-12-24T16:13:29;130.55;;;90.13;;
36351;SDS011;22382;44.768;17.206;2022-12-24T16:16:04;128.98;;;84.72;;
36351;SDS011;22382;44.768;17.206;2022-12-24T16:18:50;135.05;;;89.57;;
36351;SDS011;22382;44.768;17.206;2022-12-24T16:21:27;127.78;;;83.88;;
36351;SDS011;22382;44.768;17.206;2022-12-24T16:27:04;124.32;;;83.15;;
36351;SDS011;22382;44.768;17.206;2022-12-24T16:29:41;116.10;;;77.25;;
36351;SDS011;22382;44.768;17.206;2022-12-24T16:32:31;118.18;;;79.65;;
36351;SDS011;22382;44.768;17.206;2022-12-24T16:35:26;127.00;;;82.03;;
36351;SDS011;22382;44.768;17.206;2022-12-24T16:37:59;111.32;;;74.05;;
36351;SDS011;22382;44.768;17.206;2022-12-24T16:40:26;107.40;;;70.80;;
36351;SDS011;22382;44.768;17.206;2022-12-24T16:42:54;110.88;;;73.30;;
36351;SDS011;22382;44.768;17.206;2022-12-24T16:45:41;105.47;;;70.53;;
36351;SDS011;22382;44.768;17.206;2022-12-24T16:48:10;104.53;;;71.32;;
36351;SDS011;22382;44.768;17.206;2022-12-24T16:50:46;103.45;;;67.38;;
36351;SDS011;22382;44.768;17.206;2022-12-24T16:53:14;97.30;;;63.88;;
36351;SDS011;22382;44.768;17.206;2022-12-24T16:55:43;100.15;;;64.20;;
36351;SDS011;22382;44.768;17.206;2022-12-24T16:58:13;87.65;;;58.25;;
36351;SDS011;22382;44.768;17.206;2022-12-24T17:00:41;86.50;;;58.03;;
36351;SDS011;22382;44.768;17.206;2022-12-24T17:03:10;84.10;;;57.33;;
36351;SDS011;22382;44.768;17.206;2022-12-24T17:05:39;86.22;;;55.55;;
36351;SDS011;22382;44.768;17.206;2022-12-24T17:08:08;79.28;;;54.72;;
36351;SDS011;22382;44.768;17.206;2022-12-24T17:10:42;82.50;;;54.78;;
36351;SDS011;22382;44.768;17.206;2022-12-24T17:13:22;87.10;;;57.92;;
36351;SDS011;22382;44.768;17.206;2022-12-24T17:16:06;95.90;;;61.70;;